createdAt,value
2022-09-14T00:01:48.808Z,100879.81
2022-09-14T00:03:58.680Z,100883.47
2022-09-14T00:06:07.936Z,100880.00
2022-09-14T00:08:10.224Z,100883.66
2022-09-14T00:10:11.766Z,100879.28
2022-09-14T00:12:13.235Z,100880.13
2022-09-14T00:14:15.644Z,100878.41
2022-09-14T00:16:22.133Z,100877.53
2022-09-14T00:18:24.716Z,100870.47
2022-09-14T00:20:26.254Z,100873.97
2022-09-14T00:22:27.679Z,100873.97
2022-09-14T00:24:34.252Z,100873.03
2022-09-14T00:26:36.391Z,100864.31
2022-09-14T00:29:05.257Z,100866.97
2022-09-14T00:31:07.330Z,100861.97
2022-09-14T00:33:09.399Z,100867.44
2022-09-14T00:35:11.108Z,100871.19
2022-09-14T00:37:12.567Z,100866.06
2022-09-14T00:39:14.680Z,100868.84
2022-09-14T00:41:22.547Z,100868.94
2022-09-14T00:43:24.260Z,100864.63
2022-09-14T00:45:26.129Z,100864.69
2022-09-14T00:47:30.741Z,100858.56
2022-09-14T00:49:40.700Z,100859.50
2022-09-14T00:51:49.506Z,100854.13
2022-09-14T00:53:51.410Z,100851.53
2022-09-14T00:55:54.232Z,100847.97
2022-09-14T00:57:55.739Z,100840.88
2022-09-14T00:59:57.994Z,100848.78
2022-09-14T01:01:59.534Z,100856.78
2022-09-14T01:04:01.242Z,100863.13
2022-09-14T01:06:35.329Z,100862.38
2022-09-14T01:09:10.301Z,100866.91
2022-09-14T01:11:17.045Z,100861.53
2022-09-14T01:13:32.758Z,100854.44
2022-09-14T01:15:51.681Z,100857.06
2022-09-14T01:18:33.368Z,100851.78
2022-09-14T01:20:45.483Z,100842.91
2022-09-14T01:22:59.448Z,100836.69
2022-09-14T01:25:20.666Z,100842.91
2022-09-14T01:27:34.138Z,100840.25
2022-09-14T01:29:45.671Z,100840.41
2022-09-14T01:32:13.793Z,100838.72
2022-09-14T01:34:34.080Z,100841.63
2022-09-14T01:36:39.380Z,100841.66
2022-09-14T01:38:47.148Z,100836.44
2022-09-14T01:40:50.127Z,100841.78
2022-09-14T01:42:57.884Z,100841.78
2022-09-14T01:45:03.119Z,100840.91
2022-09-14T01:47:13.896Z,100842.72
2022-09-14T01:49:34.088Z,100847.16
2022-09-14T01:51:41.299Z,100846.28
2022-09-14T01:53:50.045Z,100832.22
2022-09-14T01:55:57.947Z,100838.75
2022-09-14T01:58:28.678Z,100829.00
2022-09-14T02:00:31.141Z,100837.75
2022-09-14T02:02:40.504Z,100840.41
2022-09-14T02:04:53.206Z,100836.09
2022-09-14T02:06:56.477Z,100837.88
2022-09-14T02:08:59.144Z,100838.84
2022-09-14T02:11:01.462Z,100834.41
2022-09-14T02:13:03.239Z,100835.34
2022-09-14T02:15:06.815Z,100841.50
2022-09-14T02:17:08.340Z,100837.19
2022-09-14T02:19:10.395Z,100834.53
2022-09-14T02:21:16.918Z,100837.19
2022-09-14T02:23:18.918Z,100827.56
2022-09-14T02:25:21.308Z,100826.69
2022-09-14T02:27:23.516Z,100823.31
2022-09-14T02:29:24.979Z,100826.94
2022-09-14T02:31:38.526Z,100821.78
2022-09-14T02:33:51.695Z,100818.44
2022-09-14T02:36:05.008Z,100815.03
2022-09-14T02:38:40.596Z,100808.88
2022-09-14T02:41:03.165Z,100804.38
2022-09-14T02:43:16.563Z,100798.22
2022-09-14T02:45:32.311Z,100799.09
2022-09-14T02:47:42.596Z,100787.63
2022-09-14T02:49:51.647Z,100794.81
2022-09-14T02:52:03.181Z,100788.72
2022-09-14T02:54:16.624Z,100788.88
2022-09-14T02:56:20.021Z,100798.63
2022-09-14T02:58:21.780Z,100798.63
2022-09-14T03:00:23.289Z,100792.50
2022-09-14T03:02:24.940Z,100784.50
2022-09-14T03:04:26.639Z,100780.94
2022-09-14T03:06:28.275Z,100781.88
2022-09-14T03:08:30.241Z,100777.44
2022-09-14T03:10:32.379Z,100773.97
2022-09-14T03:12:33.799Z,100774.84
2022-09-14T03:14:35.244Z,100773.13
2022-09-14T03:16:37.824Z,100779.31
2022-09-14T03:18:39.971Z,100769.66
2022-09-14T03:20:41.731Z,100767.94
2022-09-14T03:22:43.215Z,100770.59
2022-09-14T03:24:44.658Z,100773.22
2022-09-14T03:26:47.222Z,100776.84
2022-09-14T03:28:56.640Z,100778.69
2022-09-14T03:31:01.774Z,100776.09
2022-09-14T03:33:04.016Z,100770.91
2022-09-14T03:35:06.128Z,100771.03
2022-09-14T03:37:07.787Z,100771.09
2022-09-14T03:39:09.234Z,100777.38
2022-09-14T03:41:11.792Z,100790.72
2022-09-14T03:43:14.285Z,100780.22
2022-09-14T03:45:17.339Z,100784.59
2022-09-14T03:47:18.826Z,100784.66
2022-09-14T03:49:20.267Z,100770.47
2022-09-14T03:51:22.238Z,100769.50
2022-09-14T03:53:23.661Z,100761.50
2022-09-14T03:55:26.061Z,100764.13
2022-09-14T03:57:27.852Z,100759.75
2022-09-14T03:59:29.504Z,100765.97
2022-09-14T04:01:32.758Z,100765.06
2022-09-14T04:03:34.783Z,100764.13
2022-09-14T04:05:36.330Z,100765.81
2022-09-14T04:07:37.856Z,100759.63
2022-09-14T04:09:39.276Z,100760.38
2022-09-14T04:11:40.710Z,100748.00
2022-09-14T04:13:43.254Z,100751.53
2022-09-14T04:15:44.788Z,100756.88
2022-09-14T04:17:46.356Z,100746.28
2022-09-14T04:19:47.882Z,100744.56
2022-09-14T04:21:49.296Z,100748.13
2022-09-14T04:24:13.972Z,100749.03
2022-09-14T04:26:19.585Z,100740.25
2022-09-14T04:28:22.201Z,100740.25
2022-09-14T04:30:23.657Z,100743.84
2022-09-14T04:32:25.116Z,100741.31
2022-09-14T04:34:26.709Z,100742.38
2022-09-14T04:36:31.025Z,100739.03
2022-09-14T04:38:33.771Z,100738.22
2022-09-14T04:40:35.205Z,100743.63
2022-09-14T04:42:36.609Z,100748.91
2022-09-14T04:44:38.067Z,100744.50
2022-09-14T04:46:46.223Z,100745.31
2022-09-14T04:48:49.014Z,100741.84
2022-09-14T04:50:50.459Z,100740.22
2022-09-14T04:52:51.899Z,100730.63
2022-09-14T04:54:53.379Z,100730.63
2022-09-14T04:56:54.813Z,100735.00
2022-09-14T04:59:04.095Z,100741.97
2022-09-14T05:01:08.495Z,100741.91
2022-09-14T05:03:09.964Z,100737.47
2022-09-14T05:05:11.452Z,100749.78
2022-09-14T05:07:13.112Z,100756.00
2022-09-14T05:09:17.304Z,100745.47
2022-09-14T05:11:21.542Z,100749.94
2022-09-14T05:13:23.572Z,100746.50
2022-09-14T05:15:25.216Z,100738.56
2022-09-14T05:17:26.655Z,100749.94
2022-09-14T05:19:28.094Z,100746.28
2022-09-14T05:21:32.118Z,100747.09
2022-09-14T05:23:34.572Z,100743.53
2022-09-14T05:25:36.032Z,100742.59
2022-09-14T05:27:37.463Z,100743.34
2022-09-14T05:29:40.204Z,100739.78
2022-09-14T05:31:42.005Z,100740.44
2022-09-14T05:33:43.537Z,100742.97
2022-09-14T05:35:45.606Z,100749.94
2022-09-14T05:37:47.307Z,100753.38
2022-09-14T05:39:48.795Z,100753.31
2022-09-14T05:41:50.322Z,100753.94
2022-09-14T05:43:51.750Z,100750.38
2022-09-14T05:45:53.305Z,100750.25
2022-09-14T05:47:54.729Z,100740.44
2022-09-14T05:49:56.795Z,100741.19
2022-09-14T05:51:58.232Z,100744.50
2022-09-14T05:54:00.703Z,100742.66
2022-09-14T05:56:05.067Z,100741.56
2022-09-14T05:58:06.501Z,100740.53
2022-09-14T06:00:08.687Z,100737.75
2022-09-14T06:02:11.070Z,100736.72
2022-09-14T06:04:14.177Z,100736.59
2022-09-14T06:06:18.622Z,100734.81
2022-09-14T06:08:20.203Z,100729.44
2022-09-14T06:10:22.329Z,100734.63
2022-09-14T06:12:24.027Z,100736.22
2022-09-14T06:14:25.454Z,100742.22
2022-09-14T06:16:28.053Z,100740.31
2022-09-14T06:18:31.615Z,100735.75
2022-09-14T06:20:33.103Z,100733.84
2022-09-14T06:22:34.544Z,100738.03
2022-09-14T06:24:35.960Z,100727.25
2022-09-14T06:26:37.370Z,100729.88
2022-09-14T06:28:39.432Z,100735.84
2022-09-14T06:30:44.343Z,100728.56
2022-09-14T06:32:45.875Z,100727.53
2022-09-14T06:34:47.309Z,100727.44
2022-09-14T06:36:48.809Z,100721.13
2022-09-14T06:38:50.866Z,100721.06
2022-09-14T06:40:54.311Z,100716.56
2022-09-14T06:42:57.528Z,100726.06
2022-09-14T06:44:58.951Z,100721.56
2022-09-14T06:47:00.507Z,100725.00
2022-09-14T06:49:09.389Z,100723.09
2022-09-14T06:51:34.830Z,100718.59
2022-09-14T06:53:36.279Z,100718.66
2022-09-14T06:55:37.702Z,100723.03
2022-09-14T06:57:42.863Z,100722.09
2022-09-14T06:59:44.722Z,100731.84
2022-09-14T07:01:46.618Z,100733.50
2022-09-14T07:03:48.776Z,100730.75
2022-09-14T07:05:50.214Z,100739.44
2022-09-14T07:07:53.171Z,100737.53
2022-09-14T07:09:54.603Z,100739.97
2022-09-14T07:11:56.255Z,100742.50
2022-09-14T07:13:58.995Z,100745.03
2022-09-14T07:16:00.601Z,100750.19
2022-09-14T07:18:02.041Z,100751.72
2022-09-14T07:20:04.635Z,100753.31
2022-09-14T07:22:06.060Z,100759.22
2022-09-14T07:24:07.744Z,100761.50
2022-09-14T07:26:14.967Z,100759.38
2022-09-14T07:28:16.436Z,100754.66
2022-09-14T07:30:17.981Z,100754.25
2022-09-14T07:32:19.619Z,100760.16
2022-09-14T07:34:21.756Z,100756.44
2022-09-14T07:36:25.162Z,100754.31
2022-09-14T07:38:41.681Z,100741.63
2022-09-14T07:40:48.068Z,100739.50
2022-09-14T07:42:57.440Z,100733.78
2022-09-14T07:44:59.225Z,100729.97
2022-09-14T07:47:00.662Z,100732.34
2022-09-14T07:49:03.061Z,100722.22
2022-09-14T07:51:12.882Z,100720.94
2022-09-14T07:53:14.637Z,100731.97
2022-09-14T07:55:16.416Z,100729.75
2022-09-14T07:57:18.043Z,100736.63
2022-09-14T07:59:36.497Z,100738.28
2022-09-14T08:01:38.632Z,100733.63
2022-09-14T08:03:42.137Z,100731.53
2022-09-14T08:05:43.584Z,100728.47
2022-09-14T08:07:45.114Z,100731.69
2022-09-14T08:09:47.099Z,100737.66
2022-09-14T08:11:48.565Z,100735.69
2022-09-14T08:13:53.494Z,100724.81
2022-09-14T08:15:54.906Z,100724.53
2022-09-14T08:17:56.352Z,100724.41
2022-09-14T08:19:57.789Z,100725.91
2022-09-14T08:21:59.242Z,100725.66
2022-09-14T08:24:02.465Z,100720.97
2022-09-14T08:26:08.738Z,100721.50
2022-09-14T08:28:10.180Z,100719.53
2022-09-14T08:30:13.451Z,100713.03
2022-09-14T08:32:14.887Z,100711.78
2022-09-14T08:34:17.219Z,100720.84
2022-09-14T08:36:21.885Z,100713.06
2022-09-14T08:38:23.723Z,100713.34
2022-09-14T08:40:25.269Z,100704.84
2022-09-14T08:42:26.881Z,100713.41
2022-09-14T08:44:35.765Z,100710.56
2022-09-14T08:46:49.079Z,100709.44
2022-09-14T08:48:50.710Z,100717.38
2022-09-14T08:50:53.834Z,100712.66
2022-09-14T08:52:55.312Z,100708.03
2022-09-14T08:54:59.981Z,100702.25
2022-09-14T08:57:18.322Z,100705.28
2022-09-14T08:59:38.277Z,100703.66
2022-09-14T09:02:19.825Z,100695.03
2022-09-14T09:04:55.249Z,100693.47
2022-09-14T09:07:21.597Z,100690.16
2022-09-14T09:09:28.269Z,100697.94
2022-09-14T09:11:37.709Z,100685.84
2022-09-14T09:13:40.125Z,100689.97
2022-09-14T09:15:45.040Z,100684.84
2022-09-14T09:17:50.264Z,100700.53
2022-09-14T09:20:01.964Z,100707.69
2022-09-14T09:22:06.204Z,100695.19
2022-09-14T09:24:37.215Z,100694.81
2022-09-14T09:26:39.342Z,100698.00
2022-09-14T09:28:49.414Z,100698.31
2022-09-14T09:30:53.090Z,100699.75
2022-09-14T09:32:54.821Z,100691.63
2022-09-14T09:34:56.308Z,100681.72
2022-09-14T09:36:59.286Z,100689.72
2022-09-14T09:39:05.024Z,100687.81
2022-09-14T09:41:12.927Z,100677.59
2022-09-14T09:43:33.341Z,100679.03
2022-09-14T09:46:01.490Z,100668.47
2022-09-14T09:48:09.918Z,100674.09
2022-09-14T09:50:14.625Z,100660.25
2022-09-14T09:52:17.458Z,100662.63
2022-09-14T09:54:28.051Z,100663.28
2022-09-14T09:56:32.971Z,100662.63
2022-09-14T09:58:38.826Z,100666.25
2022-09-14T10:00:40.727Z,100663.00
2022-09-14T10:02:42.316Z,100667.19
2022-09-14T10:05:07.162Z,100663.28
2022-09-14T10:07:21.047Z,100663.63
2022-09-14T10:09:27.012Z,100660.81
2022-09-14T10:11:32.880Z,100666.94
2022-09-14T10:13:38.753Z,100662.44
2022-09-14T10:15:41.357Z,100661.69
2022-09-14T10:18:11.945Z,100660.81
2022-09-14T10:20:23.259Z,100652.72
2022-09-14T10:22:51.196Z,100645.16
2022-09-14T10:25:02.119Z,100643.78
2022-09-14T10:27:35.717Z,100640.59
2022-09-14T10:29:42.494Z,100646.31
2022-09-14T10:31:45.288Z,100651.25
2022-09-14T10:33:51.858Z,100649.31
2022-09-14T10:36:21.703Z,100645.59
2022-09-14T10:38:38.146Z,100642.63
2022-09-14T10:40:44.737Z,100645.31
2022-09-14T10:42:54.405Z,100639.75
2022-09-14T10:45:14.864Z,100640.63
2022-09-14T10:47:19.065Z,100642.81
2022-09-14T10:49:58.135Z,100646.38
2022-09-14T10:52:16.683Z,100647.31
2022-09-14T10:54:54.402Z,100656.19
2022-09-14T10:56:55.911Z,100645.59
2022-09-14T10:59:22.006Z,100648.63
2022-09-14T11:01:41.977Z,100638.59
2022-09-14T11:04:15.380Z,100638.81
2022-09-14T11:06:25.693Z,100641.53
2022-09-14T11:08:36.593Z,100632.06
2022-09-14T11:10:44.159Z,100625.00
2022-09-14T11:13:07.643Z,100626.16
2022-09-14T11:15:31.424Z,100627.03
2022-09-14T11:18:02.033Z,100629.00
2022-09-14T11:20:18.783Z,100631.53
2022-09-14T11:22:44.668Z,100618.88
2022-09-14T11:25:01.116Z,100621.63
2022-09-14T11:27:18.912Z,100622.53
2022-09-14T11:29:38.989Z,100625.38
2022-09-14T11:32:17.028Z,100622.69
2022-09-14T11:34:23.452Z,100622.97
2022-09-14T11:36:39.495Z,100616.00
2022-09-14T11:38:47.325Z,100620.00
2022-09-14T11:40:54.718Z,100621.31
2022-09-14T11:43:04.253Z,100625.50
2022-09-14T11:45:15.041Z,100627.44
2022-09-14T11:47:18.797Z,100634.88
2022-09-14T11:49:23.286Z,100638.88
2022-09-14T11:51:32.477Z,100628.19
2022-09-14T11:53:34.756Z,100626.59
2022-09-14T11:55:37.396Z,100633.03
2022-09-14T11:57:39.023Z,100625.13
2022-09-14T11:59:40.408Z,100622.97
2022-09-14T12:01:41.857Z,100627.59
2022-09-14T12:04:01.153Z,100630.16
2022-09-14T12:06:28.511Z,100632.00
2022-09-14T12:08:33.031Z,100626.00
2022-09-14T12:11:09.414Z,100626.81
2022-09-14T12:13:10.800Z,100625.22
2022-09-14T12:15:28.913Z,100622.22
2022-09-14T12:17:41.713Z,100623.84
2022-09-14T12:19:45.089Z,100618.91
2022-09-14T12:21:46.982Z,100614.84
2022-09-14T12:23:52.258Z,100617.84
2022-09-14T12:26:08.729Z,100610.66
2022-09-14T12:28:57.287Z,100613.66
2022-09-14T12:30:58.753Z,100613.56
2022-09-14T12:33:00.624Z,100618.13
2022-09-14T12:35:39.051Z,100619.56
2022-09-14T12:37:40.518Z,100604.84
2022-09-14T12:40:23.103Z,100602.59
2022-09-14T12:42:31.441Z,100606.69
2022-09-14T12:44:43.709Z,100605.81
2022-09-14T12:46:45.251Z,100595.53
2022-09-14T12:48:49.444Z,100602.19
2022-09-14T12:50:53.086Z,100599.94
2022-09-14T12:53:05.663Z,100602.72
2022-09-14T12:55:17.052Z,100600.25
2022-09-14T12:57:36.655Z,100599.84
2022-09-14T13:00:15.348Z,100603.16
2022-09-14T13:02:47.901Z,100599.72
2022-09-14T13:04:53.988Z,100593.94
2022-09-14T13:06:58.938Z,100598.53
2022-09-14T13:09:03.102Z,100600.91
2022-09-14T13:11:06.901Z,100590.84
2022-09-14T13:13:34.605Z,100587.94
2022-09-14T13:15:52.345Z,100582.66
2022-09-14T13:18:22.935Z,100574.75
2022-09-14T13:20:24.599Z,100572.47
2022-09-14T13:22:29.334Z,100571.41
2022-09-14T13:24:35.926Z,100573.75
2022-09-14T13:26:38.092Z,100567.19
2022-09-14T13:28:44.131Z,100562.25
2022-09-14T13:31:01.077Z,100558.59
2022-09-14T13:33:04.116Z,100558.59
2022-09-14T13:35:06.541Z,100557.63
2022-09-14T13:37:08.139Z,100558.19
2022-09-14T13:39:33.182Z,100557.25
2022-09-14T13:41:34.789Z,100554.91
2022-09-14T13:43:36.830Z,100550.94
2022-09-14T13:45:39.520Z,100556.19
2022-09-14T13:47:42.338Z,100549.31
2022-09-14T13:49:45.679Z,100549.56
2022-09-14T13:51:47.466Z,100549.56
2022-09-14T13:53:54.717Z,100548.50
2022-09-14T13:55:56.166Z,100550.66
2022-09-14T13:58:13.590Z,100537.91
2022-09-14T14:00:16.016Z,100538.25
2022-09-14T14:02:17.561Z,100540.28
2022-09-14T14:04:27.379Z,100538.13
2022-09-14T14:06:30.398Z,100534.59
2022-09-14T14:08:38.082Z,100534.47
2022-09-14T14:10:47.399Z,100533.53
2022-09-14T14:12:50.807Z,100535.13
2022-09-14T14:15:00.608Z,100528.47
2022-09-14T14:17:13.895Z,100526.72
2022-09-14T14:19:29.232Z,100526.50
2022-09-14T14:21:33.381Z,100523.50
2022-09-14T14:23:35.163Z,100521.50
2022-09-14T14:25:48.843Z,100514.81
2022-09-14T14:27:50.468Z,100514.41
2022-09-14T14:29:52.862Z,100512.47
2022-09-14T14:31:56.228Z,100509.28
2022-09-14T14:33:58.858Z,100506.38
2022-09-14T14:36:01.829Z,100502.22
2022-09-14T14:38:03.395Z,100496.66
2022-09-14T14:40:05.383Z,100501.59
2022-09-14T14:42:07.360Z,100509.22
2022-09-14T14:44:15.791Z,100506.91
2022-09-14T14:46:17.386Z,100501.06
2022-09-14T14:48:18.979Z,100508.44
2022-09-14T14:50:23.516Z,100499.44
2022-09-14T14:52:25.030Z,100495.06
2022-09-14T14:54:28.087Z,100501.28
2022-09-14T14:56:29.770Z,100500.94
2022-09-14T14:58:36.160Z,100497.09
2022-09-14T15:00:38.642Z,100490.38
2022-09-14T15:02:40.134Z,100492.50
2022-09-14T15:04:41.564Z,100490.22
2022-09-14T15:06:43.027Z,100486.25
2022-09-14T15:08:44.570Z,100492.69
2022-09-14T15:10:46.205Z,100489.16
2022-09-14T15:12:47.841Z,100487.66
2022-09-14T15:14:49.300Z,100482.19
2022-09-14T15:16:50.902Z,100483.16
2022-09-14T15:18:52.533Z,100481.75
2022-09-14T15:20:53.993Z,100488.09
2022-09-14T15:22:55.545Z,100479.31
2022-09-14T15:24:57.017Z,100482.41
2022-09-14T15:26:59.448Z,100479.06
2022-09-14T15:29:01.322Z,100481.09
2022-09-14T15:31:07.146Z,100471.84
2022-09-14T15:33:09.252Z,100471.19
2022-09-14T15:35:13.402Z,100471.69
2022-09-14T15:37:14.832Z,100477.38
2022-09-14T15:39:18.036Z,100477.38
2022-09-14T15:41:19.483Z,100466.03
2022-09-14T15:43:21.084Z,100470.50
2022-09-14T15:45:22.612Z,100472.97
2022-09-14T15:47:24.134Z,100472.97
2022-09-14T15:49:26.341Z,100468.38
2022-09-14T15:51:27.815Z,100473.31
2022-09-14T15:53:29.254Z,100469.22
2022-09-14T15:55:30.881Z,100471.69
2022-09-14T15:57:32.550Z,100474.34
2022-09-14T15:59:34.820Z,100475.31
2022-09-14T16:01:36.636Z,100474.78
2022-09-14T16:03:40.132Z,100472.56
2022-09-14T16:05:41.669Z,100474.81
2022-09-14T16:07:43.295Z,100479.72
2022-09-14T16:09:44.753Z,100478.97
2022-09-14T16:11:46.251Z,100472.88
2022-09-14T16:13:49.787Z,100474.06
2022-09-14T16:15:56.687Z,100468.13
2022-09-14T16:18:00.172Z,100466.63
2022-09-14T16:20:02.892Z,100466.53
2022-09-14T16:22:05.051Z,100467.19
2022-09-14T16:24:10.153Z,100462.78
2022-09-14T16:26:16.056Z,100460.13
2022-09-14T16:28:17.543Z,100461.81
2022-09-14T16:30:19.033Z,100468.03
2022-09-14T16:32:22.108Z,100469.97
2022-09-14T16:34:27.145Z,100467.38
2022-09-14T16:36:31.087Z,100463.22
2022-09-14T16:38:33.400Z,100465.34
2022-09-14T16:40:34.936Z,100468.25
2022-09-14T16:42:36.728Z,100471.97
2022-09-14T16:44:38.168Z,100464.38
2022-09-14T16:46:39.670Z,100469.19
2022-09-14T16:48:46.324Z,100469.50
2022-09-14T16:50:52.863Z,100482.22
2022-09-14T16:52:54.287Z,100484.50
2022-09-14T16:54:56.346Z,100487.28
2022-09-14T16:56:59.726Z,100487.47
2022-09-14T16:59:02.315Z,100486.63
2022-09-14T17:01:07.286Z,100483.09
2022-09-14T17:03:08.771Z,100487.28
2022-09-14T17:05:10.543Z,100482.13
2022-09-14T17:07:11.965Z,100483.09
2022-09-14T17:09:22.035Z,100484.06
2022-09-14T17:11:23.919Z,100490.66
2022-09-14T17:13:26.065Z,100490.88
2022-09-14T17:15:27.515Z,100488.31
2022-09-14T17:17:28.934Z,100475.91
2022-09-14T17:19:30.505Z,100478.66
2022-09-14T17:21:35.538Z,100478.78
2022-09-14T17:23:37.295Z,100485.19
2022-09-14T17:25:38.741Z,100489.88
2022-09-14T17:27:40.507Z,100491.03
2022-09-14T17:29:41.947Z,100492.19
2022-09-14T17:31:44.915Z,100492.28
2022-09-14T17:33:47.393Z,100494.31
2022-09-14T17:35:59.137Z,100490.94
2022-09-14T17:38:00.977Z,100495.84
2022-09-14T17:40:02.877Z,100487.16
2022-09-14T17:42:04.522Z,100486.50
2022-09-14T17:44:07.582Z,100478.91
2022-09-14T17:46:14.039Z,100481.88
2022-09-14T17:48:15.561Z,100487.59
2022-09-14T17:50:17.044Z,100490.56
2022-09-14T17:52:18.511Z,100491.78
2022-09-14T17:54:20.319Z,100485.88
2022-09-14T17:56:24.113Z,100489.69
2022-09-14T17:58:25.596Z,100483.97
2022-09-14T18:00:27.212Z,100481.78
2022-09-14T18:02:28.661Z,100479.50
2022-09-14T18:04:30.170Z,100483.41
2022-09-14T18:06:38.297Z,100478.50
2022-09-14T18:08:40.278Z,100491.38
2022-09-14T18:10:41.755Z,100488.13
2022-09-14T18:12:44.823Z,100492.78
2022-09-14T18:14:46.920Z,100499.38
2022-09-14T18:16:48.714Z,100500.59
2022-09-14T18:18:50.203Z,100499.06
2022-09-14T18:20:51.665Z,100501.16
2022-09-14T18:22:54.131Z,100498.75
2022-09-14T18:24:55.563Z,100501.75
2022-09-14T18:26:57.881Z,100504.63
2022-09-14T18:28:59.363Z,100499.47
2022-09-14T18:31:02.635Z,100501.38
2022-09-14T18:33:04.254Z,100506.88
2022-09-14T18:35:06.327Z,100502.59
2022-09-14T18:37:08.143Z,100500.97
2022-09-14T18:39:10.717Z,100499.25
2022-09-14T18:41:12.745Z,100515.25
2022-09-14T18:43:16.728Z,100506.47
2022-09-14T18:45:18.209Z,100505.63
2022-09-14T18:47:21.711Z,100511.81
2022-09-14T18:49:23.124Z,100510.09
2022-09-14T18:51:25.628Z,100505.69
2022-09-14T18:53:27.440Z,100499.66
2022-09-14T18:55:28.959Z,100513.09
2022-09-14T18:57:30.378Z,100504.31
2022-09-14T18:59:31.795Z,100512.41
2022-09-14T19:01:34.973Z,100501.06
2022-09-14T19:03:38.355Z,100508.38
2022-09-14T19:05:41.530Z,100514.81
2022-09-14T19:07:42.976Z,100513.94
2022-09-14T19:09:44.389Z,100516.69
2022-09-14T19:11:45.889Z,100514.97
2022-09-14T19:13:48.614Z,100520.41
2022-09-14T19:15:50.121Z,100514.31
2022-09-14T19:17:51.549Z,100523.25
2022-09-14T19:19:53.591Z,100516.47
2022-09-14T19:21:55.087Z,100529.88
2022-09-14T19:24:04.962Z,100522.03
2022-09-14T19:26:09.059Z,100523.09
2022-09-14T19:28:10.690Z,100523.16
2022-09-14T19:30:13.078Z,100522.47
2022-09-14T19:32:14.526Z,100514.75
2022-09-14T19:34:15.956Z,100524.72
2022-09-14T19:36:21.319Z,100519.75
2022-09-14T19:38:22.730Z,100520.81
2022-09-14T19:40:24.608Z,100513.28
2022-09-14T19:42:26.234Z,100526.84
2022-09-14T19:44:27.825Z,100524.50
2022-09-14T19:46:31.036Z,100515.84
2022-09-14T19:48:34.015Z,100521.16
2022-09-14T19:50:35.463Z,100525.47
2022-09-14T19:52:36.915Z,100526.50
2022-09-14T19:54:38.341Z,100524.94
2022-09-14T19:56:40.749Z,100527.69
2022-09-14T19:58:45.266Z,100520.56
2022-09-14T20:00:52.874Z,100527.75
2022-09-14T20:02:54.387Z,100525.28
2022-09-14T20:04:55.875Z,100528.03
2022-09-14T20:06:57.487Z,100527.31
2022-09-14T20:09:09.120Z,100522.94
2022-09-14T20:11:19.738Z,100526.78
2022-09-14T20:13:21.886Z,100532.22
2022-09-14T20:15:23.324Z,100526.97
2022-09-14T20:17:24.765Z,100529.72
2022-09-14T20:19:28.474Z,100528.94
2022-09-14T20:21:29.986Z,100526.44
2022-09-14T20:23:31.413Z,100530.13
2022-09-14T20:25:33.323Z,100538.38
2022-09-14T20:27:34.791Z,100533.22
2022-09-14T20:29:36.300Z,100528.06
2022-09-14T20:31:38.020Z,100526.50
2022-09-14T20:33:40.006Z,100530.34
2022-09-14T20:35:41.862Z,100528.91
2022-09-14T20:37:43.685Z,100534.38
2022-09-14T20:39:45.187Z,100532.13
2022-09-14T20:41:46.736Z,100522.66
2022-09-14T20:43:49.170Z,100523.69
2022-09-14T20:45:59.181Z,100527.38
2022-09-14T20:48:00.657Z,100524.94
2022-09-14T20:50:02.110Z,100527.69
2022-09-14T20:52:03.760Z,100525.25
2022-09-14T20:54:06.110Z,100522.69
2022-09-14T20:56:13.304Z,100520.25
2022-09-14T20:58:14.756Z,100516.94
2022-09-14T21:00:16.350Z,100511.78
2022-09-14T21:02:17.850Z,100513.81
2022-09-14T21:04:22.505Z,100515.75
2022-09-14T21:06:25.948Z,100516.00
2022-09-14T21:08:28.936Z,100520.75
2022-09-14T21:10:30.712Z,100516.44
2022-09-14T21:12:32.163Z,100522.84
2022-09-14T21:14:33.589Z,100515.00
2022-09-14T21:16:38.429Z,100519.53
2022-09-14T21:18:40.906Z,100517.19
2022-09-14T21:20:42.363Z,100519.09
2022-09-14T21:22:45.166Z,100515.72
2022-09-14T21:24:46.583Z,100512.44
2022-09-14T21:26:48.084Z,100515.25
2022-09-14T21:28:54.004Z,100507.44
2022-09-14T21:31:06.280Z,100506.72
2022-09-14T21:33:07.759Z,100510.44
2022-09-14T21:35:09.945Z,100512.31
2022-09-14T21:37:11.746Z,100508.88
2022-09-14T21:39:21.560Z,100505.44
2022-09-14T21:41:25.300Z,100514.34
2022-09-14T21:43:27.494Z,100516.19
2022-09-14T21:45:28.991Z,100517.22
2022-09-14T21:47:30.737Z,100524.44
2022-09-14T21:49:32.307Z,100517.50
2022-09-14T21:51:36.784Z,100516.69
2022-09-14T21:53:38.216Z,100505.41
2022-09-14T21:55:40.962Z,100516.19
2022-09-14T21:57:42.479Z,100510.94
2022-09-14T21:59:43.906Z,100504.00
2022-09-14T22:01:46.824Z,100510.28
2022-09-14T22:03:51.467Z,100507.78
2022-09-14T22:06:02.069Z,100507.06
2022-09-14T22:08:03.574Z,100515.25
2022-09-14T22:10:05.936Z,100525.91
2022-09-14T22:12:07.600Z,100514.59
2022-09-14T22:14:18.186Z,100518.25
2022-09-14T22:16:20.266Z,100519.31
2022-09-14T22:18:21.748Z,100516.81
2022-09-14T22:20:23.226Z,100521.31
2022-09-14T22:22:24.667Z,100518.91
2022-09-14T22:24:37.176Z,100514.69
2022-09-14T22:26:40.066Z,100520.03
2022-09-14T22:28:41.621Z,100514.94
2022-09-14T22:30:54.524Z,100511.56
2022-09-14T22:32:56.007Z,100513.38
2022-09-14T22:34:57.430Z,100509.06
2022-09-14T22:36:58.864Z,100515.44
2022-09-14T22:39:01.090Z,100521.63
2022-09-14T22:41:20.825Z,100514.59
2022-09-14T22:43:23.196Z,100511.16
2022-09-14T22:45:24.683Z,100509.44
2022-09-14T22:47:26.165Z,100504.19
2022-09-14T22:49:27.650Z,100500.75
2022-09-14T22:51:29.875Z,100508.78
2022-09-14T22:53:32.128Z,100507.13
2022-09-14T22:55:38.864Z,100506.25
2022-09-14T22:57:40.300Z,100509.84
2022-09-14T22:59:42.449Z,100505.53
2022-09-14T23:01:44.068Z,100502.06
2022-09-14T23:03:45.616Z,100500.34
2022-09-14T23:05:53.217Z,100502.25
2022-09-14T23:07:55.564Z,100502.47
2022-09-14T23:09:57.048Z,100508.75
2022-09-14T23:11:58.540Z,100505.31
2022-09-14T23:14:00.068Z,100507.16
2022-09-14T23:16:02.159Z,100507.22
2022-09-14T23:18:03.770Z,100505.56
2022-09-14T23:20:05.995Z,100503.72
2022-09-14T23:22:07.466Z,100504.78
2022-09-14T23:24:10.463Z,100498.69
2022-09-14T23:26:12.502Z,100504.84
2022-09-14T23:28:13.937Z,100505.78
2022-09-14T23:30:15.379Z,100500.59
2022-09-14T23:32:16.812Z,100498.16
2022-09-14T23:34:18.250Z,100500.06
2022-09-14T23:36:21.854Z,100499.28
2022-09-14T23:38:23.928Z,100503.72
2022-09-14T23:40:25.501Z,100500.19
2022-09-14T23:42:27.038Z,100489.59
2022-09-14T23:44:28.487Z,100491.47
2022-09-14T23:46:29.983Z,100495.94
2022-09-14T23:48:31.493Z,100483.69
2022-09-14T23:50:33.817Z,100496.06
2022-09-14T23:52:35.297Z,100489.03
2022-09-14T23:54:36.747Z,100486.38